Time;durP1;ratioP1;P1;durP2;ratioP2;P2;SDS_P1;SDS_P2;PMS_P1;PMS_P2;Temp;Humidity;BMP_temperature;BMP_pressure;BME280_temperature;BME280_humidity;BME280_pressure;Samples;Min_cycle;Max_cycle;Signal;HPM_P1;HPM_P2
2022/09/04 00:01:40;;;;;;;10.82;5.60;;;;;;;;;;5108249;28;20029;-75
2022/09/04 00:04:17;;;;;;;9.73;6.28;;;;;;;;;;5113195;28;20103;-75
2022/09/04 00:07:08;;;;;;;8.13;5.90;;;;;;;;;;5110507;28;20061;-75
2022/09/04 00:09:40;;;;;;;18.13;5.95;;;;;;;;;;5100613;28;20053;-75
2022/09/04 00:12:07;;;;;;;11.05;5.80;;;;;;;;;;5099636;28;20197;-75
2022/09/04 00:14:50;;;;;;;11.48;5.78;;;;;;;;;;5107518;28;20076;-75
2022/09/04 00:17:33;;;;;;;10.20;5.00;;;;;;;;;;5106684;28;20104;-75
2022/09/04 00:20:12;;;;;;;8.25;5.43;;;;;;;;;;5111472;28;20175;-75
2022/09/04 00:22:51;;;;;;;8.55;6.05;;;;;;;;;;5112219;28;20037;-75
2022/09/04 00:25:25;;;;;;;9.30;5.63;;;;;;;;;;5102856;28;20037;-75
2022/09/04 00:27:57;;;;;;;15.95;6.13;;;;;;;;;;5111226;28;20033;-75
2022/09/04 00:30:25;;;;;;;10.00;5.43;;;;;;;;;;5114150;28;20043;-75
2022/09/04 00:32:55;;;;;;;10.73;5.72;;;;;;;;;;5109423;28;20043;-76
2022/09/04 00:35:22;;;;;;;10.15;6.22;;;;;;;;;;5108895;28;20049;-75
2022/09/04 00:37:50;;;;;;;10.13;6.00;;;;;;;;;;5115576;28;20053;-75
2022/09/04 00:40:32;;;;;;;9.57;6.93;;;;;;;;;;5111055;28;20060;-75
2022/09/04 00:43:12;;;;;;;12.25;7.25;;;;;;;;;;5111068;28;20104;-75
2022/09/04 00:45:46;;;;;;;14.98;7.00;;;;;;;;;;5112913;28;20033;-75
2022/09/04 00:48:16;;;;;;;8.52;6.30;;;;;;;;;;5109465;28;20061;-75
2022/09/04 00:50:47;;;;;;;11.50;6.55;;;;;;;;;;5107512;28;20043;-75
2022/09/04 00:53:30;;;;;;;12.13;6.90;;;;;;;;;;5108411;28;20505;-75
2022/09/04 00:56:16;;;;;;;10.18;7.30;;;;;;;;;;5112399;28;21420;-75
2022/09/04 00:58:56;;;;;;;9.80;7.25;;;;;;;;;;5111098;28;20049;-75
2022/09/04 01:01:27;;;;;;;9.73;6.75;;;;;;;;;;5107456;28;20041;-75
2022/09/04 01:04:07;;;;;;;10.15;7.03;;;;;;;;;;5112578;28;20071;-75
2022/09/04 01:06:35;;;;;;;9.05;6.40;;;;;;;;;;5097964;28;20083;-76
2022/09/04 01:09:05;;;;;;;8.18;6.88;;;;;;;;;;5106998;28;20039;-75
2022/09/04 01:11:42;;;;;;;12.98;7.03;;;;;;;;;;5106250;28;20041;-75
2022/09/04 01:14:45;;;;;;;14.45;6.78;;;;;;;;;;5109425;28;20045;-75
2022/09/04 01:17:35;;;;;;;9.18;7.40;;;;;;;;;;5062675;28;20141;-75
2022/09/04 01:20:11;;;;;;;18.00;7.22;;;;;;;;;;5052670;28;20048;-75
2022/09/04 01:22:49;;;;;;;13.20;8.13;;;;;;;;;;5057970;28;20052;-75
2022/09/04 01:25:32;;;;;;;10.15;7.18;;;;;;;;;;5053080;28;20097;-75
2022/09/04 01:28:03;;;;;;;10.38;7.28;;;;;;;;;;5052800;28;20054;-74
2022/09/04 01:30:36;;;;;;;9.20;6.72;;;;;;;;;;5055200;28;20034;-75
2022/09/04 01:33:19;;;;;;;10.38;7.60;;;;;;;;;;5058063;28;20049;-75
2022/09/04 01:35:47;;;;;;;11.23;7.80;;;;;;;;;;5056557;28;20048;-74
2022/09/04 01:38:32;;;;;;;12.75;7.63;;;;;;;;;;5054982;28;20029;-75
2022/09/04 01:41:10;;;;;;;10.13;6.65;;;;;;;;;;5048131;28;20037;-76
2022/09/04 01:43:37;;;;;;;11.88;6.82;;;;;;;;;;5056734;28;20030;-75
2022/09/04 01:46:14;;;;;;;10.32;6.75;;;;;;;;;;5052295;28;20037;-76
2022/09/04 01:48:45;;;;;;;10.48;6.65;;;;;;;;;;5054850;28;20189;-75
2022/09/04 01:51:32;;;;;;;10.52;6.72;;;;;;;;;;5081133;28;20039;-75
2022/09/04 01:54:19;;;;;;;13.75;6.93;;;;;;;;;;5070672;28;20048;-75
2022/09/04 01:57:02;;;;;;;8.57;6.70;;;;;;;;;;5071084;28;20078;-75
2022/09/04 01:59:32;;;;;;;10.20;7.20;;;;;;;;;;5109950;28;20037;-74
2022/09/04 02:02:33;;;;;;;11.10;7.15;;;;;;;;;;5101332;28;20029;-75
2022/09/04 02:05:18;;;;;;;9.65;7.20;;;;;;;;;;5082965;28;20045;-75
2022/09/04 02:07:49;;;;;;;12.68;7.50;;;;;;;;;;5110360;28;20040;-75
2022/09/04 02:10:22;;;;;;;12.35;7.40;;;;;;;;;;5106529;28;20036;-74
2022/09/04 02:12:49;;;;;;;;;;;;;;;;;;5105156;28;20029;-75
2022/09/04 02:15:34;;;;;;;10.75;8.00;;;;;;;;;;5102815;28;43932;-75
2022/09/04 02:18:05;;;;;;;17.40;7.93;;;;;;;;;;5111181;28;20082;-75
2022/09/04 02:20:33;;;;;;;16.58;8.82;;;;;;;;;;5103407;28;20039;-75
2022/09/04 02:23:19;;;;;;;13.05;8.32;;;;;;;;;;5089105;28;20096;-75
2022/09/04 02:26:04;;;;;;;14.15;8.27;;;;;;;;;;5104800;28;20046;-75
2022/09/04 02:28:44;;;;;;;10.80;8.15;;;;;;;;;;5104865;28;20055;-75
2022/09/04 02:31:21;;;;;;;13.68;8.32;;;;;;;;;;5106567;28;20052;-75
2022/09/04 02:34:11;;;;;;;14.25;9.05;;;;;;;;;;5106609;28;20040;-75
2022/09/04 02:36:38;;;;;;;13.52;8.73;;;;;;;;;;5104505;28;20035;-75
2022/09/04 02:39:21;;;;;;;13.23;8.77;;;;;;;;;;5105511;28;20045;-75
2022/09/04 02:41:51;;;;;;;10.13;8.48;;;;;;;;;;5106795;28;20063;-75
2022/09/04 02:44:37;;;;;;;13.13;8.65;;;;;;;;;;5102759;28;20041;-75
2022/09/04 02:47:16;;;;;;;14.85;8.77;;;;;;;;;;5109778;28;20088;-74
2022/09/04 02:50:02;;;;;;;17.88;9.02;;;;;;;;;;5103917;28;20061;-74
2022/09/04 02:52:48;;;;;;;11.60;9.05;;;;;;;;;;5111165;28;20027;-75
2022/09/04 02:55:34;;;;;;;11.55;8.50;;;;;;;;;;5099990;28;20037;-75
2022/09/04 02:58:02;;;;;;;13.50;8.98;;;;;;;;;;5111726;28;20032;-75
2022/09/04 03:00:38;;;;;;;11.25;9.13;;;;;;;;;;5103560;28;20079;-76
2022/09/04 03:03:25;;;;;;;10.73;8.88;;;;;;;;;;5102450;28;20100;-75
2022/09/04 03:05:57;;;;;;;13.60;9.32;;;;;;;;;;5107152;28;20037;-75
2022/09/04 03:08:27;;;;;;;15.38;9.18;;;;;;;;;;5106807;28;20091;-75
2022/09/04 03:11:14;;;;;;;14.43;9.35;;;;;;;;;;5103224;28;20683;-75
2022/09/04 03:13:46;;;;;;;15.60;9.27;;;;;;;;;;5111735;28;20056;-74
2022/09/04 03:16:33;;;;;;;17.27;10.23;;;;;;;;;;5107668;28;20143;-74
2022/09/04 03:19:06;;;;;;;17.23;10.38;;;;;;;;;;5100132;28;20077;-74
2022/09/04 03:21:39;;;;;;;16.63;9.55;;;;;;;;;;5105702;28;20059;-75
2022/09/04 03:24:09;;;;;;;14.45;9.85;;;;;;;;;;5109913;28;20021;-75
2022/09/04 03:26:38;;;;;;;18.13;10.15;;;;;;;;;;5108676;28;20039;-74
2022/09/04 03:29:09;;;;;;;15.05;10.27;;;;;;;;;;5101958;28;20039;-74
2022/09/04 03:31:40;;;;;;;12.40;9.82;;;;;;;;;;5107010;28;20055;-75
2022/09/04 03:34:07;;;;;;;16.52;10.30;;;;;;;;;;5106530;28;20052;-75
2022/09/04 03:36:44;;;;;;;16.38;10.40;;;;;;;;;;5112076;28;20029;-75
2022/09/04 03:39:23;;;;;;;13.35;10.55;;;;;;;;;;5106376;28;20259;-75
2022/09/04 03:42:15;;;;;;;16.80;10.70;;;;;;;;;;5105878;28;20070;-74
2022/09/04 03:44:42;;;;;;;13.77;10.27;;;;;;;;;;5107570;28;20032;-75
2022/09/04 03:47:35;;;;;;;13.50;10.55;;;;;;;;;;5113848;28;20465;-74
2022/09/04 03:50:21;;;;;;;15.07;10.30;;;;;;;;;;5108441;28;20108;-75
2022/09/04 03:52:58;;;;;;;13.40;9.38;;;;;;;;;;5107181;28;20037;-74
2022/09/04 03:55:26;;;;;;;13.07;9.63;;;;;;;;;;5089809;28;20040;-75
2022/09/04 03:58:05;;;;;;;15.18;10.45;;;;;;;;;;5115770;28;20044;-74
2022/09/04 04:00:42;;;;;;;25.52;9.95;;;;;;;;;;5104481;28;20035;-74
2022/09/04 04:03:36;;;;;;;14.68;10.57;;;;;;;;;;5105550;28;20044;-75
2022/09/04 04:06:22;;;;;;;12.85;9.77;;;;;;;;;;5105608;28;20037;-75
2022/09/04 04:08:55;;;;;;;12.82;9.57;;;;;;;;;;5108895;28;20033;-75
2022/09/04 04:11:23;;;;;;;14.10;9.65;;;;;;;;;;5113725;28;20056;-75
2022/09/04 04:13:56;;;;;;;16.95;9.85;;;;;;;;;;5108641;28;20049;-75
2022/09/04 04:16:27;;;;;;;14.35;9.18;;;;;;;;;;5102451;28;20035;-75
2022/09/04 04:19:14;;;;;;;14.00;8.68;;;;;;;;;;5113299;28;20126;-74
2022/09/04 04:21:54;;;;;;;17.17;9.18;;;;;;;;;;5113281;28;20063;-74
2022/09/04 04:24:29;;;;;;;12.60;9.02;;;;;;;;;;5113570;28;20037;-75
2022/09/04 04:27:20;;;;;;;11.45;8.55;;;;;;;;;;5107047;28;20028;-75
2022/09/04 04:30:05;;;;;;;15.77;7.72;;;;;;;;;;5029648;28;20071;-74
2022/09/04 04:32:33;;;;;;;;;;;;;;;;;;5015401;28;20035;-75
2022/09/04 04:35:02;;;;;;;9.93;7.32;;;;;;;;;;5028013;28;43279;-75
2022/09/04 04:37:29;;;;;;;11.43;7.63;;;;;;;;;;5027986;28;20035;-75
2022/09/04 04:39:59;;;;;;;12.10;7.72;;;;;;;;;;5032832;28;20057;-75
2022/09/04 04:42:40;;;;;;;13.05;8.65;;;;;;;;;;5033703;28;20205;-75
2022/09/04 04:48:18;;;;;;;13.82;7.75;;;;;;;;;;5029494;28;20046;-75
2022/09/04 04:51:04;;;;;;;15.30;8.23;;;;;;;;;;5032401;28;20046;-75
2022/09/04 04:53:50;;;;;;;9.65;7.40;;;;;;;;;;5021476;28;20042;-75
2022/09/04 04:56:19;;;;;;;15.20;8.43;;;;;;;;;;5029089;28;20062;-77
2022/09/04 04:58:58;;;;;;;10.55;7.70;;;;;;;;;;5027733;28;21849;-75
2022/09/04 05:01:51;;;;;;;11.75;8.13;;;;;;;;;;5029325;28;20046;-75
2022/09/04 05:04:28;;;;;;;11.07;8.02;;;;;;;;;;5026318;28;20054;-77
2022/09/04 05:07:16;;;;;;;14.23;8.77;;;;;;;;;;5056448;28;20097;-75
2022/09/04 05:10:13;;;;;;;11.88;8.60;;;;;;;;;;5072772;28;20064;-75
2022/09/04 05:13:16;;;;;;;11.55;7.30;;;;;;;;;;4984519;28;20095;-77
2022/09/04 05:16:02;;;;;;;10.20;6.70;;;;;;;;;;4938025;28;20457;-75
2022/09/04 05:18:51;;;;;;;11.40;7.30;;;;;;;;;;4936619;29;20238;-75
2022/09/04 05:21:27;;;;;;;9.60;6.97;;;;;;;;;;4937710;28;20059;-75
2022/09/04 05:24:17;;;;;;;10.75;7.75;;;;;;;;;;4937942;28;20623;-75
2022/09/04 05:26:51;;;;;;;11.13;7.00;;;;;;;;;;4935840;28;20048;-75
2022/09/04 05:29:38;;;;;;;13.25;7.43;;;;;;;;;;4937273;28;20036;-75
2022/09/04 05:32:13;;;;;;;9.82;7.22;;;;;;;;;;4937251;28;20093;-75
2022/09/04 05:34:52;;;;;;;11.32;7.82;;;;;;;;;;4937347;28;20025;-74
2022/09/04 05:37:28;;;;;;;16.27;7.85;;;;;;;;;;4935263;28;20104;-75
2022/09/04 05:40:03;;;;;;;13.88;7.70;;;;;;;;;;4935560;28;20036;-75
2022/09/04 05:42:50;;;;;;;16.27;8.40;;;;;;;;;;4936539;28;20044;-75
2022/09/04 05:45:33;;;;;;;11.50;8.15;;;;;;;;;;4935836;29;20043;-75
2022/09/04 05:48:06;;;;;;;11.02;8.18;;;;;;;;;;4934836;28;20048;-75
2022/09/04 05:51:03;;;;;;;11.10;8.13;;;;;;;;;;5058803;28;20073;-75
2022/09/04 05:53:30;;;;;;;11.20;7.38;;;;;;;;;;5057092;28;20085;-75
2022/09/04 05:55:57;;;;;;;10.98;8.77;;;;;;;;;;5067698;28;20101;-75
2022/09/04 05:58:36;;;;;;;10.45;8.60;;;;;;;;;;5071091;28;20061;-75
2022/09/04 06:01:13;;;;;;;11.20;8.00;;;;;;;;;;5063530;28;20073;-75
2022/09/04 06:03:40;;;;;;;14.60;8.50;;;;;;;;;;5068149;28;20058;-75
2022/09/04 06:06:28;;;;;;;11.65;8.70;;;;;;;;;;5068335;28;20029;-77
2022/09/04 06:09:01;;;;;;;12.98;8.50;;;;;;;;;;5062265;28;20084;-75
2022/09/04 06:11:29;;;;;;;12.65;8.38;;;;;;;;;;5067974;28;20033;-74
2022/09/04 06:14:05;;;;;;;14.52;8.73;;;;;;;;;;5068588;28;20029;-75
2022/09/04 06:16:43;;;;;;;13.18;8.90;;;;;;;;;;5064470;28;20030;-76
2022/09/04 06:19:26;;;;;;;14.05;9.10;;;;;;;;;;5067062;28;20050;-77
2022/09/04 06:21:56;;;;;;;15.82;8.98;;;;;;;;;;5070457;28;20046;-74
2022/09/04 06:24:46;;;;;;;12.05;8.60;;;;;;;;;;5070969;28;20032;-77
2022/09/04 06:27:29;;;;;;;12.55;8.65;;;;;;;;;;5070503;28;20053;-76
2022/09/04 06:30:19;;;;;;;16.33;9.48;;;;;;;;;;5065786;28;20037;-77
2022/09/04 06:32:46;;;;;;;21.98;10.20;;;;;;;;;;5069392;28;20038;-77
2022/09/04 06:35:18;;;;;;;13.20;9.90;;;;;;;;;;5067285;28;20044;-76
2022/09/04 06:38:05;;;;;;;17.25;11.95;;;;;;;;;;5064167;28;20586;-77
2022/09/04 06:40:58;;;;;;;16.65;12.05;;;;;;;;;;5100973;28;20049;-76
2022/09/04 06:43:41;;;;;;;15.60;11.30;;;;;;;;;;5108576;28;20037;-76
2022/09/04 06:46:22;;;;;;;19.65;14.20;;;;;;;;;;5102938;28;20033;-77
2022/09/04 06:49:17;;;;;;;19.30;13.02;;;;;;;;;;5107559;28;20067;-77
2022/09/04 06:52:05;;;;;;;22.10;13.55;;;;;;;;;;5106572;28;20045;-77
2022/09/04 06:54:44;;;;;;;21.52;12.70;;;;;;;;;;5108713;28;20047;-76
2022/09/04 06:57:29;;;;;;;19.45;13.55;;;;;;;;;;5103398;28;20099;-75
2022/09/04 06:59:59;;;;;;;18.75;13.13;;;;;;;;;;5106223;28;20109;-76
2022/09/04 07:02:45;;;;;;;19.13;12.82;;;;;;;;;;5103585;28;20037;-76
2022/09/04 07:05:12;;;;;;;19.92;14.10;;;;;;;;;;5111328;28;20064;-75
2022/09/04 07:08:03;;;;;;;23.40;14.07;;;;;;;;;;5109893;28;20028;-76
2022/09/04 07:10:37;;;;;;;21.88;14.68;;;;;;;;;;5102086;28;20033;-76
2022/09/04 07:13:23;;;;;;;17.65;13.30;;;;;;;;;;5116173;28;20508;-75
2022/09/04 07:15:51;;;;;;;22.33;14.35;;;;;;;;;;5110043;28;20032;-76
2022/09/04 07:18:31;;;;;;;19.65;13.90;;;;;;;;;;5104145;28;20061;-76
2022/09/04 07:21:25;;;;;;;22.60;13.80;;;;;;;;;;5105473;28;20052;-76
2022/09/04 07:24:02;;;;;;;18.52;13.23;;;;;;;;;;5077001;28;20029;-76
2022/09/04 07:26:36;;;;;;;23.10;13.38;;;;;;;;;;5109552;28;20109;-76
2022/09/04 07:29:22;;;;;;;20.33;13.10;;;;;;;;;;5102395;28;20059;-76
2022/09/04 07:31:57;;;;;;;20.73;13.15;;;;;;;;;;5108687;28;20043;-76
2022/09/04 07:34:25;;;;;;;;;;;;;;;;;;5104006;28;20047;-76
2022/09/04 07:36:58;;;;;;;16.67;12.10;;;;;;;;;;5112715;28;43517;-76
2022/09/04 07:39:25;;;;;;;23.92;12.73;;;;;;;;;;5104230;28;20089;-76
2022/09/04 07:42:18;;;;;;;16.75;12.18;;;;;;;;;;5112360;28;20040;-76
2022/09/04 07:44:46;;;;;;;;;;;;;;;;;;5107525;28;20096;-76
2022/09/04 07:47:19;;;;;;;21.90;11.25;;;;;;;;;;5114435;28;43755;-76
2022/09/04 07:50:06;;;;;;;16.15;11.43;;;;;;;;;;5107481;28;20044;-76
2022/09/04 07:52:58;;;;;;;18.27;12.15;;;;;;;;;;5111988;28;20051;-77
2022/09/04 07:55:39;;;;;;;17.02;12.10;;;;;;;;;;5116266;28;20037;-76
2022/09/04 07:58:12;;;;;;;14.88;11.48;;;;;;;;;;5113128;28;20041;-76
2022/09/04 08:01:03;;;;;;;15.85;11.45;;;;;;;;;;5105780;28;20039;-76
2022/09/04 08:03:50;;;;;;;24.08;12.23;;;;;;;;;;5112387;28;20059;-76
2022/09/04 08:06:26;;;;;;;17.90;11.77;;;;;;;;;;5109947;28;20041;-77
2022/09/04 08:08:57;;;;;;;17.13;11.23;;;;;;;;;;5109160;28;20188;-76
2022/09/04 08:11:27;;;;;;;17.73;11.55;;;;;;;;;;5109750;28;20033;-76
2022/09/04 08:14:10;;;;;;;18.52;12.20;;;;;;;;;;5111129;28;20116;-76
2022/09/04 08:16:47;;;;;;;15.85;10.95;;;;;;;;;;5105064;28;20056;-76
2022/09/04 08:19:19;;;;;;;17.45;11.68;;;;;;;;;;5103626;28;20044;-75
2022/09/04 08:21:48;;;;;;;16.95;11.32;;;;;;;;;;5112851;28;20051;-76
2022/09/04 08:24:34;;;;;;;14.30;10.52;;;;;;;;;;5106276;28;20033;-76
2022/09/04 08:27:21;;;;;;;14.82;10.80;;;;;;;;;;5107068;28;20066;-76
2022/09/04 08:30:03;;;;;;;16.02;10.57;;;;;;;;;;5107227;28;20043;-75
2022/09/04 08:32:49;;;;;;;18.73;10.53;;;;;;;;;;5105858;28;20556;-76
2022/09/04 08:35:38;;;;;;;17.13;10.40;;;;;;;;;;5109991;28;20287;-76
2022/09/04 08:38:05;;;;;;;13.02;9.77;;;;;;;;;;5113627;28;20117;-76
2022/09/04 08:41:08;;;;;;;19.08;10.35;;;;;;;;;;5109236;28;20053;-75
2022/09/04 08:43:54;;;;;;;16.58;10.27;;;;;;;;;;5052870;28;20030;-76
2022/09/04 08:46:21;;;;;;;17.50;9.85;;;;;;;;;;5051435;28;20050;-75
2022/09/04 08:49:09;;;;;;;15.00;10.00;;;;;;;;;;5053491;28;20109;-76
2022/09/04 08:51:56;;;;;;;14.60;11.05;;;;;;;;;;5053914;28;20041;-75
2022/09/04 08:54:39;;;;;;;15.98;10.18;;;;;;;;;;5051883;28;20058;-75
2022/09/04 08:57:06;;;;;;;14.27;9.75;;;;;;;;;;5051021;28;20045;-75
2022/09/04 08:59:47;;;;;;;15.18;9.82;;;;;;;;;;5053032;28;20045;-75
2022/09/04 09:02:17;;;;;;;11.93;9.05;;;;;;;;;;5052631;28;20133;-76
2022/09/04 09:04:50;;;;;;;15.73;9.38;;;;;;;;;;5053082;28;20050;-77
2022/09/04 09:07:33;;;;;;;14.73;9.07;;;;;;;;;;5051303;28;20038;-76
2022/09/04 09:10:18;;;;;;;15.73;9.07;;;;;;;;;;5053323;28;20062;-75
2022/09/04 09:13:12;;;;;;;20.58;8.98;;;;;;;;;;5049381;28;20101;-76
2022/09/04 09:15:45;;;;;;;14.00;8.43;;;;;;;;;;5054382;28;20038;-75
2022/09/04 09:18:34;;;;;;;13.25;8.73;;;;;;;;;;5093886;28;20037;-76
2022/09/04 09:21:19;;;;;;;18.27;9.02;;;;;;;;;;5113690;28;20071;-74
2022/09/04 09:24:10;;;;;;;11.88;8.43;;;;;;;;;;5111075;28;20049;-76
2022/09/04 09:26:58;;;;;;;10.98;7.78;;;;;;;;;;5111377;28;20041;-75
2022/09/04 09:29:39;;;;;;;11.75;8.50;;;;;;;;;;5095778;28;20139;-76
2022/09/04 09:32:22;;;;;;;13.38;7.85;;;;;;;;;;5107514;28;20040;-76
2022/09/04 09:35:07;;;;;;;11.30;7.82;;;;;;;;;;5110124;28;20036;-75
2022/09/04 09:38:10;;;;;;;12.00;8.02;;;;;;;;;;5107167;28;20025;-76
2022/09/04 09:40:38;;;;;;;10.35;8.07;;;;;;;;;;5033440;28;20053;-75
2022/09/04 09:43:14;;;;;;;12.05;7.10;;;;;;;;;;5032285;28;20046;-76
2022/09/04 09:46:00;;;;;;;10.50;6.32;;;;;;;;;;5032139;28;20081;-76
2022/09/04 09:48:46;;;;;;;15.60;7.18;;;;;;;;;;5028837;28;20041;-76
2022/09/04 09:51:16;;;;;;;10.77;6.50;;;;;;;;;;5029636;28;20110;-75
2022/09/04 09:53:58;;;;;;;12.13;7.15;;;;;;;;;;5029207;28;20031;-76
2022/09/04 09:56:35;;;;;;;11.02;8.10;;;;;;;;;;5031001;28;20050;-76
2022/09/04 09:59:35;;;;;;;13.23;8.40;;;;;;;;;;5031170;28;20050;-75
2022/09/04 10:02:18;;;;;;;10.63;6.63;;;;;;;;;;4988218;28;20111;-74
2022/09/04 10:04:54;;;;;;;12.90;6.53;;;;;;;;;;4986489;28;20039;-75
2022/09/04 10:07:22;;;;;;;11.02;6.93;;;;;;;;;;4988696;28;20048;-76
2022/09/04 10:10:09;;;;;;;17.63;6.95;;;;;;;;;;4990220;28;20034;-75
2022/09/04 10:12:49;;;;;;;15.35;7.97;;;;;;;;;;4987506;28;20177;-75
2022/09/04 10:15:49;;;;;;;11.30;6.68;;;;;;;;;;5020753;28;20113;-75
2022/09/04 10:18:34;;;;;;;11.15;7.38;;;;;;;;;;5028613;28;20110;-76
2022/09/04 10:21:20;;;;;;;13.13;7.32;;;;;;;;;;5031103;28;20177;-76
2022/09/04 10:24:16;;;;;;;12.70;7.43;;;;;;;;;;5029784;28;20114;-76
2022/09/04 10:26:44;;;;;;;9.82;5.78;;;;;;;;;;5032294;28;20050;-75
2022/09/04 10:29:30;;;;;;;16.35;7.28;;;;;;;;;;5018681;28;20035;-77
2022/09/04 10:32:16;;;;;;;11.63;6.53;;;;;;;;;;5026625;28;20106;-75
2022/09/04 10:35:02;;;;;;;8.77;6.05;;;;;;;;;;5031440;28;20048;-73
2022/09/04 10:37:41;;;;;;;8.93;5.10;;;;;;;;;;5064670;28;20575;-75
2022/09/04 10:43:00;;;;;;;10.60;4.93;;;;;;;;;;5101449;28;20052;-76
2022/09/04 10:45:32;;;;;;;7.45;4.57;;;;;;;;;;5105370;28;20047;-76
2022/09/04 10:48:11;;;;;;;7.40;4.00;;;;;;;;;;5109605;28;20059;-76
2022/09/04 10:50:57;;;;;;;5.75;3.97;;;;;;;;;;5111040;28;20032;-76
2022/09/04 10:53:50;;;;;;;6.40;3.70;;;;;;;;;;5107372;28;20080;-76
2022/09/04 10:56:17;;;;;;;;;;;;;;;;;;5105349;28;20047;-75
2022/09/04 10:58:47;;;;;;;7.25;4.05;;;;;;;;;;5110470;28;42388;-76
2022/09/04 11:01:34;;;;;;;9.85;3.85;;;;;;;;;;5102650;28;20041;-75
2022/09/04 11:04:12;;;;;;;7.40;3.63;;;;;;;;;;5106489;28;20025;-76
2022/09/04 11:07:09;;;;;;;7.40;4.47;;;;;;;;;;5108161;28;20040;-75
2022/09/04 11:09:42;;;;;;;6.53;3.53;;;;;;;;;;5101660;28;20055;-75
2022/09/04 11:12:27;;;;;;;5.13;3.30;;;;;;;;;;5102692;28;20067;-75
2022/09/04 11:15:13;;;;;;;6.88;3.78;;;;;;;;;;5104665;28;20109;-76
2022/09/04 11:17:59;;;;;;;11.25;5.60;;;;;;;;;;5104082;28;20072;-75
2022/09/04 11:20:38;;;;;;;9.65;4.85;;;;;;;;;;5101982;28;20065;-75
2022/09/04 11:23:06;;;;;;;11.15;4.93;;;;;;;;;;5102394;28;20039;-75
2022/09/04 11:25:36;;;;;;;9.10;4.28;;;;;;;;;;5107761;28;20037;-75
2022/09/04 11:28:12;;;;;;;9.30;5.05;;;;;;;;;;5104270;28;20049;-74
2022/09/04 11:30:54;;;;;;;7.60;4.43;;;;;;;;;;5098549;28;20041;-74
2022/09/04 11:33:51;;;;;;;8.02;4.57;;;;;;;;;;5100200;28;20759;-74
2022/09/04 11:36:24;;;;;;;5.97;4.15;;;;;;;;;;5103158;28;20028;-72
2022/09/04 11:38:58;;;;;;;8.32;4.15;;;;;;;;;;5098567;28;20063;-75
2022/09/04 11:41:44;;;;;;;6.60;5.00;;;;;;;;;;5097504;28;20064;-75
2022/09/04 11:44:21;;;;;;;8.57;4.90;;;;;;;;;;5102789;28;20131;-73
2022/09/04 11:47:00;;;;;;;6.10;3.70;;;;;;;;;;5114048;28;20052;-74
2022/09/04 11:49:47;;;;;;;6.53;3.60;;;;;;;;;;5097511;28;20116;-75
2022/09/04 11:52:39;;;;;;;7.38;4.18;;;;;;;;;;5105918;28;20202;-75
2022/09/04 11:55:22;;;;;;;10.15;4.55;;;;;;;;;;5099613;28;20101;-74
2022/09/04 11:57:49;;;;;;;;;;;;;;;;;;5103958;28;20175;-75
2022/09/04 12:00:17;;;;;;;8.60;4.55;;;;;;;;;;5103257;28;44304;-75
2022/09/04 12:03:05;;;;;;;7.75;4.00;;;;;;;;;;5103132;28;20048;-75
2022/09/04 12:05:42;;;;;;;5.65;3.30;;;;;;;;;;5102043;28;20047;-73
2022/09/04 12:08:22;;;;;;;4.93;2.70;;;;;;;;;;5099136;28;20044;-75
2022/09/04 12:10:51;;;;;;;7.35;3.13;;;;;;;;;;5103012;28;20060;-73
2022/09/04 12:13:21;;;;;;;9.98;3.42;;;;;;;;;;5096715;28;20085;-73
2022/09/04 12:15:54;;;;;;;6.15;3.00;;;;;;;;;;5091497;28;20108;-74
2022/09/04 12:18:21;;;;;;;5.15;2.60;;;;;;;;;;5098770;28;20059;-75
2022/09/04 12:20:54;;;;;;;4.78;2.60;;;;;;;;;;5093213;28;20083;-73
2022/09/04 12:23:30;;;;;;;3.50;2.13;;;;;;;;;;5102265;28;20037;-73
2022/09/04 12:26:16;;;;;;;2.92;1.85;;;;;;;;;;5100038;28;20045;-74
2022/09/04 12:28:59;;;;;;;5.20;2.17;;;;;;;;;;5098922;28;20168;-73
2022/09/04 12:31:39;;;;;;;4.07;2.17;;;;;;;;;;5103719;28;20032;-74
2022/09/04 12:34:07;;;;;;;5.43;1.95;;;;;;;;;;5102383;28;20041;-73
2022/09/04 12:36:58;;;;;;;4.20;1.98;;;;;;;;;;5102258;28;20040;-74
2022/09/04 12:39:47;;;;;;;4.70;2.38;;;;;;;;;;5099980;28;20028;-74
2022/09/04 12:42:24;;;;;;;4.88;2.00;;;;;;;;;;5097109;28;20032;-74
2022/09/04 12:44:51;;;;;;;4.50;2.20;;;;;;;;;;5101941;28;20140;-74
2022/09/04 12:47:24;;;;;;;3.47;1.90;;;;;;;;;;5099747;28;20039;-74
2022/09/04 12:50:10;;;;;;;6.63;2.00;;;;;;;;;;5102982;28;20074;-73
2022/09/04 12:52:56;;;;;;;3.63;1.90;;;;;;;;;;5099387;28;20041;-73
2022/09/04 12:55:44;;;;;;;4.90;2.00;;;;;;;;;;5097822;28;20080;-75
2022/09/04 12:58:20;;;;;;;5.75;2.10;;;;;;;;;;5096508;28;20084;-72
2022/09/04 13:00:54;;;;;;;6.13;1.80;;;;;;;;;;5094555;28;20533;-73
2022/09/04 13:03:27;;;;;;;2.83;2.00;;;;;;;;;;5101688;28;20075;-73
2022/09/04 13:06:02;;;;;;;4.55;1.90;;;;;;;;;;5098945;28;20052;-75
2022/09/04 13:08:45;;;;;;;3.38;2.03;;;;;;;;;;5099108;28;20041;-74
2022/09/04 13:11:18;;;;;;;4.38;2.03;;;;;;;;;;5096624;28;20040;-75
2022/09/04 13:14:11;;;;;;;3.63;2.00;;;;;;;;;;5103440;28;20045;-73
2022/09/04 13:16:51;;;;;;;5.38;1.90;;;;;;;;;;5097163;28;20051;-73
2022/09/04 13:19:34;;;;;;;3.40;1.70;;;;;;;;;;5097003;28;20041;-73
2022/09/04 13:22:14;;;;;;;2.17;1.67;;;;;;;;;;5096610;28;20092;-72
2022/09/04 13:24:55;;;;;;;4.22;1.60;;;;;;;;;;5102480;28;20056;-74
2022/09/04 13:27:42;;;;;;;2.70;1.60;;;;;;;;;;5098194;28;20053;-74
2022/09/04 13:30:17;;;;;;;2.72;1.75;;;;;;;;;;5097933;28;20067;-73
2022/09/04 13:32:49;;;;;;;3.53;1.58;;;;;;;;;;5099917;28;20032;-72
2022/09/04 13:35:37;;;;;;;5.43;1.70;;;;;;;;;;5086746;28;20052;-75
2022/09/04 13:38:19;;;;;;;3.38;1.95;;;;;;;;;;5097270;28;20888;-72
2022/09/04 13:40:53;;;;;;;3.20;1.90;;;;;;;;;;5096771;28;20060;-73
2022/09/04 13:43:29;;;;;;;5.57;1.80;;;;;;;;;;5101437;28;20099;-73
2022/09/04 13:45:59;;;;;;;4.93;2.00;;;;;;;;;;5092506;28;20059;-73
2022/09/04 13:48:31;;;;;;;2.33;1.80;;;;;;;;;;5103662;28;20049;-72
2022/09/04 13:51:01;;;;;;;2.10;1.65;;;;;;;;;;5088198;28;21497;-74
2022/09/04 13:53:51;;;;;;;7.32;1.75;;;;;;;;;;5093875;28;20040;-74
2022/09/04 13:56:23;;;;;;;2.03;1.60;;;;;;;;;;5104866;28;20172;-74
2022/09/04 13:58:50;;;;;;;4.15;2.10;;;;;;;;;;5091115;28;20044;-73
2022/09/04 14:01:20;;;;;;;2.00;1.50;;;;;;;;;;5102675;28;20041;-74
2022/09/04 14:03:51;;;;;;;3.97;1.80;;;;;;;;;;5103106;28;20025;-74
2022/09/04 14:06:20;;;;;;;3.92;1.75;;;;;;;;;;5102430;28;20052;-73
2022/09/04 14:08:49;;;;;;;2.10;1.45;;;;;;;;;;5107610;28;20056;-74
2022/09/04 14:11:49;;;;;;;2.58;1.80;;;;;;;;;;5104921;28;20036;-74
2022/09/04 14:14:40;;;;;;;3.40;1.88;;;;;;;;;;5104047;28;20051;-72
2022/09/04 14:17:08;;;;;;;5.53;1.60;;;;;;;;;;5101163;28;20048;-73
2022/09/04 14:19:54;;;;;;;5.95;1.80;;;;;;;;;;5094365;28;20045;-72
2022/09/04 14:22:48;;;;;;;2.38;1.60;;;;;;;;;;5099310;28;20944;-72
2022/09/04 14:25:25;;;;;;;2.58;1.73;;;;;;;;;;5102279;28;20033;-74
2022/09/04 14:28:02;;;;;;;2.45;1.70;;;;;;;;;;5103219;28;20040;-74
2022/09/04 14:30:29;;;;;;;;;;;;;;;;;;5103275;28;20056;-72
2022/09/04 14:32:59;;;;;;;2.83;1.83;;;;;;;;;;5105597;28;43516;-73
2022/09/04 14:35:45;;;;;;;4.15;1.95;;;;;;;;;;5098453;28;20086;-73
2022/09/04 14:38:19;;;;;;;3.03;1.85;;;;;;;;;;5101471;28;20116;-73
2022/09/04 14:41:01;;;;;;;2.13;1.70;;;;;;;;;;5101233;28;20126;-74
2022/09/04 14:43:34;;;;;;;3.35;1.65;;;;;;;;;;5103811;28;20055;-73
2022/09/04 14:46:05;;;;;;;5.60;1.77;;;;;;;;;;5104837;28;20059;-73
2022/09/04 14:48:39;;;;;;;2.42;1.77;;;;;;;;;;5099536;28;20071;-73
2022/09/04 14:51:21;;;;;;;6.78;2.35;;;;;;;;;;5101145;28;20044;-72
2022/09/04 14:53:54;;;;;;;3.53;1.90;;;;;;;;;;5109866;28;20104;-74
2022/09/04 14:56:25;;;;;;;5.20;1.88;;;;;;;;;;5098814;28;20044;-74
2022/09/04 14:59:11;;;;;;;4.38;1.77;;;;;;;;;;5107000;28;20894;-73
2022/09/04 15:01:54;;;;;;;4.20;1.73;;;;;;;;;;5100918;28;20056;-73
2022/09/04 15:04:27;;;;;;;2.70;1.80;;;;;;;;;;5104862;28;20045;-74
2022/09/04 15:07:03;;;;;;;7.88;1.98;;;;;;;;;;5103760;28;20040;-73
2022/09/04 15:09:42;;;;;;;2.67;1.98;;;;;;;;;;5101890;28;20071;-73
2022/09/04 15:12:19;;;;;;;4.93;2.20;;;;;;;;;;5104750;28;20121;-74
2022/09/04 15:14:58;;;;;;;4.82;2.13;;;;;;;;;;5104116;28;20036;-74
2022/09/04 15:17:28;;;;;;;4.68;2.22;;;;;;;;;;5100968;28;20029;-74
2022/09/04 15:20:05;;;;;;;3.25;1.80;;;;;;;;;;5100923;28;20056;-73
2022/09/04 15:22:35;;;;;;;5.00;1.90;;;;;;;;;;5104502;28;20059;-74
2022/09/04 15:25:07;;;;;;;6.25;2.08;;;;;;;;;;5105001;28;20056;-75
2022/09/04 15:27:41;;;;;;;2.47;1.75;;;;;;;;;;5104565;28;20064;-73
2022/09/04 15:30:21;;;;;;;3.90;1.92;;;;;;;;;;5103088;28;20045;-74
2022/09/04 15:32:49;;;;;;;3.78;2.03;;;;;;;;;;5103509;28;20075;-74
2022/09/04 15:35:22;;;;;;;3.47;1.92;;;;;;;;;;5103777;28;20028;-74
2022/09/04 15:37:52;;;;;;;5.53;2.22;;;;;;;;;;5101270;28;20167;-74
2022/09/04 15:40:44;;;;;;;4.20;2.15;;;;;;;;;;5085614;28;20105;-75
2022/09/04 15:43:31;;;;;;;3.25;1.90;;;;;;;;;;5104953;28;20053;-72
2022/09/04 15:46:02;;;;;;;3.05;2.03;;;;;;;;;;5104668;28;20097;-74
2022/09/04 15:48:52;;;;;;;2.78;1.85;;;;;;;;;;5103830;28;20049;-74
2022/09/04 15:51:25;;;;;;;8.45;2.08;;;;;;;;;;5100952;28;20845;-72